sensor_id;sensor_type;location;lat;lon;timestamp;temperature;humidity
41437;DHT22;27178;49.460;10.850;2023-12-29T00:00:22;11.80;84.70
41437;DHT22;27178;49.460;10.850;2023-12-29T00:02:50;11.80;84.80
41437;DHT22;27178;49.460;10.850;2023-12-29T00:05:18;11.70;84.80
41437;DHT22;27178;49.460;10.850;2023-12-29T00:07:48;11.80;84.80
41437;DHT22;27178;49.460;10.850;2023-12-29T00:10:16;11.70;84.80
41437;DHT22;27178;49.460;10.850;2023-12-29T00:12:45;11.70;84.80
41437;DHT22;27178;49.460;10.850;2023-12-29T00:15:17;11.70;84.80
41437;DHT22;27178;49.460;10.850;2023-12-29T00:17:45;11.70;85.00
41437;DHT22;27178;49.460;10.850;2023-12-29T00:20:14;11.00;84.40
41437;DHT22;27178;49.460;10.850;2023-12-29T00:23:04;11.70;84.90
41437;DHT22;27178;49.460;10.850;2023-12-29T00:25:32;11.70;84.80
41437;DHT22;27178;49.460;10.850;2023-12-29T00:28:00;11.70;84.80
41437;DHT22;27178;49.460;10.850;2023-12-29T00:30:28;11.70;84.80
41437;DHT22;27178;49.460;10.850;2023-12-29T00:33:17;11.70;84.80
41437;DHT22;27178;49.460;10.850;2023-12-29T00:35:46;11.70;84.80
41437;DHT22;27178;49.460;10.850;2023-12-29T00:38:15;11.70;84.80
41437;DHT22;27178;49.460;10.850;2023-12-29T00:40:43;11.70;84.80
41437;DHT22;27178;49.460;10.850;2023-12-29T00:43:12;11.70;85.00
41437;DHT22;27178;49.460;10.850;2023-12-29T00:45:40;11.70;85.00
41437;DHT22;27178;49.460;10.850;2023-12-29T00:48:08;11.70;85.00
41437;DHT22;27178;49.460;10.850;2023-12-29T00:50:36;11.70;85.10
41437;DHT22;27178;49.460;10.850;2023-12-29T00:53:05;11.70;85.00
41437;DHT22;27178;49.460;10.850;2023-12-29T00:55:34;11.70;85.10
41437;DHT22;27178;49.460;10.850;2023-12-29T00:58:02;11.70;85.10
41437;DHT22;27178;49.460;10.850;2023-12-29T01:00:31;11.70;85.10
41437;DHT22;27178;49.460;10.850;2023-12-29T01:03:00;11.70;85.10
41437;DHT22;27178;49.460;10.850;2023-12-29T01:05:28;11.70;85.10
41437;DHT22;27178;49.460;10.850;2023-12-29T01:07:55;11.70;85.00
41437;DHT22;27178;49.460;10.850;2023-12-29T01:10:24;11.70;85.10
41437;DHT22;27178;49.460;10.850;2023-12-29T01:12:54;11.70;85.10
41437;DHT22;27178;49.460;10.850;2023-12-29T01:15:25;11.70;85.10
41437;DHT22;27178;49.460;10.850;2023-12-29T01:17:55;11.70;85.10
41437;DHT22;27178;49.460;10.850;2023-12-29T01:20:24;11.70;85.00
41437;DHT22;27178;49.460;10.850;2023-12-29T01:22:52;11.70;85.00
41437;DHT22;27178;49.460;10.850;2023-12-29T01:25:20;11.70;85.10
41437;DHT22;27178;49.460;10.850;2023-12-29T01:27:48;11.70;85.10
41437;DHT22;27178;49.460;10.850;2023-12-29T01:30:18;11.70;85.10
41437;DHT22;27178;49.460;10.850;2023-12-29T01:32:47;11.70;85.10
41437;DHT22;27178;49.460;10.850;2023-12-29T01:35:16;11.70;85.10
41437;DHT22;27178;49.460;10.850;2023-12-29T01:37:46;11.80;85.10
41437;DHT22;27178;49.460;10.850;2023-12-29T01:40:14;11.80;85.10
41437;DHT22;27178;49.460;10.850;2023-12-29T01:42:44;11.80;85.10
41437;DHT22;27178;49.460;10.850;2023-12-29T01:45:21;11.80;85.10
41437;DHT22;27178;49.460;10.850;2023-12-29T01:47:50;11.80;85.20
41437;DHT22;27178;49.460;10.850;2023-12-29T01:50:20;11.80;85.20
41437;DHT22;27178;49.460;10.850;2023-12-29T01:52:50;11.80;85.20
41437;DHT22;27178;49.460;10.850;2023-12-29T01:55:21;11.80;85.20
41437;DHT22;27178;49.460;10.850;2023-12-29T01:57:50;11.90;85.20
41437;DHT22;27178;49.460;10.850;2023-12-29T02:00:20;11.90;85.20
41437;DHT22;27178;49.460;10.850;2023-12-29T02:02:49;11.90;85.10
41437;DHT22;27178;49.460;10.850;2023-12-29T02:05:17;12.00;85.10
41437;DHT22;27178;49.460;10.850;2023-12-29T02:07:51;11.90;85.10
41437;DHT22;27178;49.460;10.850;2023-12-29T02:10:19;11.90;85.10
41437;DHT22;27178;49.460;10.850;2023-12-29T02:12:47;11.90;85.10
41437;DHT22;27178;49.460;10.850;2023-12-29T02:15:17;12.00;85.10
41437;DHT22;27178;49.460;10.850;2023-12-29T02:17:50;11.90;85.00
41437;DHT22;27178;49.460;10.850;2023-12-29T02:20:19;12.00;85.10
41437;DHT22;27178;49.460;10.850;2023-12-29T02:22:47;12.00;85.00
41437;DHT22;27178;49.460;10.850;2023-12-29T02:25:17;12.00;85.10
41437;DHT22;27178;49.460;10.850;2023-12-29T02:27:51;12.00;84.90
41437;DHT22;27178;49.460;10.850;2023-12-29T02:30:27;12.00;85.10
41437;DHT22;27178;49.460;10.850;2023-12-29T02:33:00;12.00;84.90
41437;DHT22;27178;49.460;10.850;2023-12-29T02:35:33;12.00;84.80
41437;DHT22;27178;49.460;10.850;2023-12-29T02:38:03;12.00;84.90
41437;DHT22;27178;49.460;10.850;2023-12-29T02:40:32;12.00;84.90
41437;DHT22;27178;49.460;10.850;2023-12-29T02:43:01;12.00;85.00
41437;DHT22;27178;49.460;10.850;2023-12-29T02:45:29;12.00;85.10
41437;DHT22;27178;49.460;10.850;2023-12-29T02:47:57;12.00;85.10
41437;DHT22;27178;49.460;10.850;2023-12-29T02:50:26;12.00;85.10
41437;DHT22;27178;49.460;10.850;2023-12-29T02:52:55;12.00;85.10
41437;DHT22;27178;49.460;10.850;2023-12-29T02:55:23;12.00;85.20
41437;DHT22;27178;49.460;10.850;2023-12-29T02:57:52;12.00;85.10
41437;DHT22;27178;49.460;10.850;2023-12-29T03:00:21;12.00;85.10
41437;DHT22;27178;49.460;10.850;2023-12-29T03:02:49;12.00;85.10
41437;DHT22;27178;49.460;10.850;2023-12-29T03:05:18;12.00;85.10
41437;DHT22;27178;49.460;10.850;2023-12-29T03:07:46;12.00;85.10
41437;DHT22;27178;49.460;10.850;2023-12-29T03:10:14;12.00;85.10
41437;DHT22;27178;49.460;10.850;2023-12-29T03:12:43;12.00;85.10
41437;DHT22;27178;49.460;10.850;2023-12-29T03:15:13;11.90;85.00
41437;DHT22;27178;49.460;10.850;2023-12-29T03:17:41;11.90;85.10
41437;DHT22;27178;49.460;10.850;2023-12-29T03:20:11;11.90;85.00
41437;DHT22;27178;49.460;10.850;2023-12-29T03:22:39;11.90;85.00
41437;DHT22;27178;49.460;10.850;2023-12-29T03:25:08;11.90;84.90
41437;DHT22;27178;49.460;10.850;2023-12-29T03:27:36;11.90;85.00
41437;DHT22;27178;49.460;10.850;2023-12-29T03:30:06;11.90;85.10
41437;DHT22;27178;49.460;10.850;2023-12-29T03:32:35;11.90;85.20
41437;DHT22;27178;49.460;10.850;2023-12-29T03:35:04;11.90;85.10
41437;DHT22;27178;49.460;10.850;2023-12-29T03:37:33;11.80;85.10
41437;DHT22;27178;49.460;10.850;2023-12-29T03:40:01;11.80;85.00
41437;DHT22;27178;49.460;10.850;2023-12-29T03:42:29;11.80;85.00
41437;DHT22;27178;49.460;10.850;2023-12-29T03:44:57;11.80;85.10
41437;DHT22;27178;49.460;10.850;2023-12-29T03:47:26;11.80;85.10
41437;DHT22;27178;49.460;10.850;2023-12-29T03:49:56;11.80;85.00
41437;DHT22;27178;49.460;10.850;2023-12-29T03:52:24;11.80;85.10
41437;DHT22;27178;49.460;10.850;2023-12-29T03:54:52;11.80;85.10
41437;DHT22;27178;49.460;10.850;2023-12-29T03:57:21;11.80;85.10
41437;DHT22;27178;49.460;10.850;2023-12-29T03:59:49;11.80;85.10
41437;DHT22;27178;49.460;10.850;2023-12-29T04:02:17;11.70;85.00
41437;DHT22;27178;49.460;10.850;2023-12-29T04:04:46;11.80;85.20
41437;DHT22;27178;49.460;10.850;2023-12-29T04:07:15;11.80;85.20
41437;DHT22;27178;49.460;10.850;2023-12-29T04:09:43;11.70;85.10
41437;DHT22;27178;49.460;10.850;2023-12-29T04:12:12;11.70;85.10
41437;DHT22;27178;49.460;10.850;2023-12-29T04:14:40;11.80;85.20
41437;DHT22;27178;49.460;10.850;2023-12-29T04:17:10;11.70;85.10
41437;DHT22;27178;49.460;10.850;2023-12-29T04:19:41;10.70;84.50
41437;DHT22;27178;49.460;10.850;2023-12-29T04:22:09;11.70;85.10
41437;DHT22;27178;49.460;10.850;2023-12-29T04:24:40;11.70;85.00
41437;DHT22;27178;49.460;10.850;2023-12-29T04:27:08;11.70;84.90
41437;DHT22;27178;49.460;10.850;2023-12-29T04:29:36;11.80;85.00
41437;DHT22;27178;49.460;10.850;2023-12-29T04:32:05;11.70;84.80
41437;DHT22;27178;49.460;10.850;2023-12-29T04:34:33;11.80;84.80
41437;DHT22;27178;49.460;10.850;2023-12-29T04:37:01;11.80;84.80
41437;DHT22;27178;49.460;10.850;2023-12-29T04:39:30;11.80;84.60
41437;DHT22;27178;49.460;10.850;2023-12-29T04:42:00;11.80;84.60
41437;DHT22;27178;49.460;10.850;2023-12-29T04:44:28;11.80;84.60
41437;DHT22;27178;49.460;10.850;2023-12-29T04:46:57;11.80;84.60
41437;DHT22;27178;49.460;10.850;2023-12-29T04:49:25;11.80;84.60
41437;DHT22;27178;49.460;10.850;2023-12-29T04:51:53;11.80;84.50
41437;DHT22;27178;49.460;10.850;2023-12-29T04:54:22;11.80;84.50
41437;DHT22;27178;49.460;10.850;2023-12-29T04:56:51;11.80;84.60
41437;DHT22;27178;49.460;10.850;2023-12-29T04:59:20;11.80;84.50
41437;DHT22;27178;49.460;10.850;2023-12-29T05:01:49;11.80;84.60
41437;DHT22;27178;49.460;10.850;2023-12-29T05:04:17;11.80;84.40
41437;DHT22;27178;49.460;10.850;2023-12-29T05:06:46;11.80;84.50
41437;DHT22;27178;49.460;10.850;2023-12-29T05:09:14;11.70;84.40
41437;DHT22;27178;49.460;10.850;2023-12-29T05:11:42;11.80;84.50
41437;DHT22;27178;49.460;10.850;2023-12-29T05:14:11;11.80;84.40
41437;DHT22;27178;49.460;10.850;2023-12-29T05:16:41;11.80;84.60
41437;DHT22;27178;49.460;10.850;2023-12-29T05:19:10;11.80;84.60
41437;DHT22;27178;49.460;10.850;2023-12-29T05:21:38;11.80;84.50
41437;DHT22;27178;49.460;10.850;2023-12-29T05:24:06;11.70;84.50
41437;DHT22;27178;49.460;10.850;2023-12-29T05:26:34;11.70;84.50
41437;DHT22;27178;49.460;10.850;2023-12-29T05:32:52;11.80;84.60
41437;DHT22;27178;49.460;10.850;2023-12-29T05:35:21;11.80;84.40
41437;DHT22;27178;49.460;10.850;2023-12-29T05:37:49;11.80;84.40
41437;DHT22;27178;49.460;10.850;2023-12-29T05:40:18;11.70;84.50
41437;DHT22;27178;49.460;10.850;2023-12-29T05:42:47;11.80;84.60
41437;DHT22;27178;49.460;10.850;2023-12-29T05:45:16;11.80;84.50
41437;DHT22;27178;49.460;10.850;2023-12-29T05:47:44;11.70;84.40
41437;DHT22;27178;49.460;10.850;2023-12-29T05:50:15;11.70;84.40
41437;DHT22;27178;49.460;10.850;2023-12-29T05:52:43;11.70;84.40
41437;DHT22;27178;49.460;10.850;2023-12-29T05:55:12;11.70;84.40
41437;DHT22;27178;49.460;10.850;2023-12-29T05:57:40;11.70;84.50
41437;DHT22;27178;49.460;10.850;2023-12-29T06:00:10;11.70;84.40
41437;DHT22;27178;49.460;10.850;2023-12-29T06:02:41;11.70;84.70
41437;DHT22;27178;49.460;10.850;2023-12-29T06:05:10;11.70;84.60
41437;DHT22;27178;49.460;10.850;2023-12-29T06:07:40;11.70;84.60
41437;DHT22;27178;49.460;10.850;2023-12-29T06:10:08;11.70;84.60
41437;DHT22;27178;49.460;10.850;2023-12-29T06:12:37;11.70;84.60
41437;DHT22;27178;49.460;10.850;2023-12-29T06:15:07;11.70;84.70
41437;DHT22;27178;49.460;10.850;2023-12-29T06:17:35;11.70;84.70
41437;DHT22;27178;49.460;10.850;2023-12-29T06:20:04;11.60;84.60
41437;DHT22;27178;49.460;10.850;2023-12-29T06:22:34;11.60;84.60
41437;DHT22;27178;49.460;10.850;2023-12-29T06:25:04;11.70;84.60
41437;DHT22;27178;49.460;10.850;2023-12-29T06:27:32;11.60;84.70
41437;DHT22;27178;49.460;10.850;2023-12-29T06:30:05;11.60;84.60
41437;DHT22;27178;49.460;10.850;2023-12-29T06:32:34;11.60;84.80
41437;DHT22;27178;49.460;10.850;2023-12-29T06:35:03;11.60;84.60
41437;DHT22;27178;49.460;10.850;2023-12-29T06:37:32;11.60;84.80
41437;DHT22;27178;49.460;10.850;2023-12-29T06:40:00;11.60;85.70
41437;DHT22;27178;49.460;10.850;2023-12-29T06:42:31;11.60;84.80
41437;DHT22;27178;49.460;10.850;2023-12-29T06:44:59;11.60;84.80
41437;DHT22;27178;49.460;10.850;2023-12-29T06:47:27;11.60;84.90
41437;DHT22;27178;49.460;10.850;2023-12-29T06:49:55;11.60;84.80
41437;DHT22;27178;49.460;10.850;2023-12-29T06:52:24;11.60;84.80
41437;DHT22;27178;49.460;10.850;2023-12-29T06:54:53;11.50;84.80
41437;DHT22;27178;49.460;10.850;2023-12-29T06:57:21;11.50;84.80
41437;DHT22;27178;49.460;10.850;2023-12-29T06:59:51;11.60;84.90
41437;DHT22;27178;49.460;10.850;2023-12-29T07:02:20;11.60;84.90
41437;DHT22;27178;49.460;10.850;2023-12-29T07:04:48;11.60;85.00
41437;DHT22;27178;49.460;10.850;2023-12-29T07:07:16;11.60;85.00
41437;DHT22;27178;49.460;10.850;2023-12-29T07:09:44;11.60;85.10
41437;DHT22;27178;49.460;10.850;2023-12-29T07:12:13;11.60;85.10
41437;DHT22;27178;49.460;10.850;2023-12-29T07:14:41;11.60;85.20
41437;DHT22;27178;49.460;10.850;2023-12-29T07:17:11;11.60;85.30
41437;DHT22;27178;49.460;10.850;2023-12-29T07:19:39;11.70;85.40
41437;DHT22;27178;49.460;10.850;2023-12-29T07:22:08;11.70;85.40
41437;DHT22;27178;49.460;10.850;2023-12-29T07:24:36;11.70;85.40
41437;DHT22;27178;49.460;10.850;2023-12-29T07:27:06;11.70;85.50
41437;DHT22;27178;49.460;10.850;2023-12-29T07:29:35;11.80;85.60
41437;DHT22;27178;49.460;10.850;2023-12-29T07:32:04;11.80;85.60
41437;DHT22;27178;49.460;10.850;2023-12-29T07:34:35;11.80;85.70
41437;DHT22;27178;49.460;10.850;2023-12-29T07:37:03;11.80;85.60
41437;DHT22;27178;49.460;10.850;2023-12-29T07:39:31;11.80;85.60
41437;DHT22;27178;49.460;10.850;2023-12-29T07:42:00;11.80;85.60
41437;DHT22;27178;49.460;10.850;2023-12-29T07:44:29;11.80;85.60
41437;DHT22;27178;49.460;10.850;2023-12-29T07:46:58;11.80;85.60
41437;DHT22;27178;49.460;10.850;2023-12-29T07:49:26;11.90;85.70
41437;DHT22;27178;49.460;10.850;2023-12-29T07:51:57;11.90;85.70
41437;DHT22;27178;49.460;10.850;2023-12-29T07:54:26;11.90;85.70
41437;DHT22;27178;49.460;10.850;2023-12-29T07:56:54;11.90;85.70
41437;DHT22;27178;49.460;10.850;2023-12-29T07:59:22;11.90;85.70
41437;DHT22;27178;49.460;10.850;2023-12-29T08:01:51;11.90;85.70
41437;DHT22;27178;49.460;10.850;2023-12-29T08:04:20;11.90;85.70
41437;DHT22;27178;49.460;10.850;2023-12-29T08:06:48;11.90;85.70
41437;DHT22;27178;49.460;10.850;2023-12-29T08:09:17;12.00;85.70
41437;DHT22;27178;49.460;10.850;2023-12-29T08:11:47;12.00;85.60
41437;DHT22;27178;49.460;10.850;2023-12-29T08:14:15;12.00;85.50
41437;DHT22;27178;49.460;10.850;2023-12-29T08:16:44;12.00;85.50
41437;DHT22;27178;49.460;10.850;2023-12-29T08:19:12;12.00;85.50
41437;DHT22;27178;49.460;10.850;2023-12-29T08:21:42;12.00;85.40
41437;DHT22;27178;49.460;10.850;2023-12-29T08:24:10;12.10;85.40
41437;DHT22;27178;49.460;10.850;2023-12-29T08:26:44;12.10;85.30
41437;DHT22;27178;49.460;10.850;2023-12-29T08:29:13;12.10;85.10
41437;DHT22;27178;49.460;10.850;2023-12-29T08:31:41;12.10;85.10
41437;DHT22;27178;49.460;10.850;2023-12-29T08:34:10;12.10;85.10
41437;DHT22;27178;49.460;10.850;2023-12-29T08:36:39;12.10;84.90
41437;DHT22;27178;49.460;10.850;2023-12-29T08:39:07;12.20;84.80
41437;DHT22;27178;49.460;10.850;2023-12-29T08:41:36;12.20;84.80
41437;DHT22;27178;49.460;10.850;2023-12-29T08:44:05;12.20;84.50
41437;DHT22;27178;49.460;10.850;2023-12-29T08:46:34;12.20;84.40
41437;DHT22;27178;49.460;10.850;2023-12-29T08:49:02;12.20;84.40
41437;DHT22;27178;49.460;10.850;2023-12-29T08:51:31;12.20;84.40
41437;DHT22;27178;49.460;10.850;2023-12-29T08:53:59;12.20;84.20
41437;DHT22;27178;49.460;10.850;2023-12-29T08:56:27;12.20;84.00
41437;DHT22;27178;49.460;10.850;2023-12-29T08:58:56;12.20;84.00
41437;DHT22;27178;49.460;10.850;2023-12-29T09:01:26;12.30;84.00
41437;DHT22;27178;49.460;10.850;2023-12-29T09:03:54;12.30;84.00
41437;DHT22;27178;49.460;10.850;2023-12-29T09:06:23;12.30;84.00
41437;DHT22;27178;49.460;10.850;2023-12-29T09:08:51;12.30;84.10
41437;DHT22;27178;49.460;10.850;2023-12-29T09:11:20;12.30;84.10
41437;DHT22;27178;49.460;10.850;2023-12-29T09:13:49;12.30;84.00
41437;DHT22;27178;49.460;10.850;2023-12-29T09:16:17;12.30;83.90
41437;DHT22;27178;49.460;10.850;2023-12-29T09:18:47;12.40;83.90
41437;DHT22;27178;49.460;10.850;2023-12-29T09:21:15;12.40;83.60
41437;DHT22;27178;49.460;10.850;2023-12-29T09:23:43;12.40;83.60
41437;DHT22;27178;49.460;10.850;2023-12-29T09:26:13;12.40;83.50
41437;DHT22;27178;49.460;10.850;2023-12-29T09:28:42;12.40;83.50
41437;DHT22;27178;49.460;10.850;2023-12-29T09:31:11;12.40;83.60
41437;DHT22;27178;49.460;10.850;2023-12-29T09:33:40;12.40;83.40
41437;DHT22;27178;49.460;10.850;2023-12-29T09:36:09;12.40;83.40
41437;DHT22;27178;49.460;10.850;2023-12-29T09:38:37;12.40;83.30
41437;DHT22;27178;49.460;10.850;2023-12-29T09:41:10;12.40;83.50
41437;DHT22;27178;49.460;10.850;2023-12-29T09:43:40;12.40;83.30
41437;DHT22;27178;49.460;10.850;2023-12-29T09:46:10;12.40;83.30
41437;DHT22;27178;49.460;10.850;2023-12-29T09:48:41;12.40;83.30
41437;DHT22;27178;49.460;10.850;2023-12-29T09:51:12;12.40;83.50
41437;DHT22;27178;49.460;10.850;2023-12-29T09:53:41;12.50;83.60
41437;DHT22;27178;49.460;10.850;2023-12-29T09:56:10;12.50;83.60
41437;DHT22;27178;49.460;10.850;2023-12-29T09:58:38;12.50;83.50
41437;DHT22;27178;49.460;10.850;2023-12-29T10:01:06;12.50;83.40
41437;DHT22;27178;49.460;10.850;2023-12-29T10:03:35;12.50;83.50
41437;DHT22;27178;49.460;10.850;2023-12-29T10:06:06;12.50;83.50
41437;DHT22;27178;49.460;10.850;2023-12-29T10:08:37;12.50;83.60
41437;DHT22;27178;49.460;10.850;2023-12-29T10:11:07;12.50;83.70
41437;DHT22;27178;49.460;10.850;2023-12-29T10:13:37;12.50;83.80
41437;DHT22;27178;49.460;10.850;2023-12-29T10:16:20;12.50;83.70
41437;DHT22;27178;49.460;10.850;2023-12-29T10:19:00;12.60;83.80
41437;DHT22;27178;49.460;10.850;2023-12-29T10:21:36;12.60;83.80
41437;DHT22;27178;49.460;10.850;2023-12-29T10:24:12;12.60;83.80
41437;DHT22;27178;49.460;10.850;2023-12-29T10:26:41;12.60;84.00
41437;DHT22;27178;49.460;10.850;2023-12-29T10:29:11;12.60;84.00
41437;DHT22;27178;49.460;10.850;2023-12-29T10:31:44;12.60;84.20
41437;DHT22;27178;49.460;10.850;2023-12-29T10:34:20;12.60;84.30
41437;DHT22;27178;49.460;10.850;2023-12-29T10:36:49;12.60;84.60
41437;DHT22;27178;49.460;10.850;2023-12-29T10:39:19;12.70;84.70
41437;DHT22;27178;49.460;10.850;2023-12-29T10:41:47;12.70;84.80
41437;DHT22;27178;49.460;10.850;2023-12-29T10:44:16;12.70;84.80
41437;DHT22;27178;49.460;10.850;2023-12-29T10:46:45;12.70;84.80
41437;DHT22;27178;49.460;10.850;2023-12-29T10:49:13;12.70;85.10
41437;DHT22;27178;49.460;10.850;2023-12-29T10:51:42;12.70;85.20
41437;DHT22;27178;49.460;10.850;2023-12-29T10:54:20;12.70;85.30
41437;DHT22;27178;49.460;10.850;2023-12-29T10:57:00;12.80;85.40
41437;DHT22;27178;49.460;10.850;2023-12-29T10:59:29;12.80;85.50
41437;DHT22;27178;49.460;10.850;2023-12-29T11:02:01;12.90;85.60
41437;DHT22;27178;49.460;10.850;2023-12-29T11:04:33;12.90;85.70
41437;DHT22;27178;49.460;10.850;2023-12-29T11:07:02;12.90;85.50
41437;DHT22;27178;49.460;10.850;2023-12-29T11:09:32;12.90;85.50
41437;DHT22;27178;49.460;10.850;2023-12-29T11:12:02;13.00;85.70
41437;DHT22;27178;49.460;10.850;2023-12-29T11:14:31;13.00;85.60
41437;DHT22;27178;49.460;10.850;2023-12-29T11:17:00;13.00;85.40
41437;DHT22;27178;49.460;10.850;2023-12-29T11:19:28;13.00;85.40
41437;DHT22;27178;49.460;10.850;2023-12-29T11:21:58;13.00;85.20
41437;DHT22;27178;49.460;10.850;2023-12-29T11:24:26;13.10;85.30
41437;DHT22;27178;49.460;10.850;2023-12-29T11:27:06;13.10;85.20
41437;DHT22;27178;49.460;10.850;2023-12-29T11:29:35;13.10;85.20
41437;DHT22;27178;49.460;10.850;2023-12-29T11:32:06;13.10;85.10
41437;DHT22;27178;49.460;10.850;2023-12-29T11:34:42;13.10;84.90
41437;DHT22;27178;49.460;10.850;2023-12-29T11:37:28;13.10;84.80
41437;DHT22;27178;49.460;10.850;2023-12-29T11:40:04;13.10;84.70
41437;DHT22;27178;49.460;10.850;2023-12-29T11:42:40;13.20;84.60
41437;DHT22;27178;49.460;10.850;2023-12-29T11:45:26;13.10;84.40
41437;DHT22;27178;49.460;10.850;2023-12-29T11:47:56;13.10;84.20
41437;DHT22;27178;49.460;10.850;2023-12-29T11:50:28;13.20;84.30
41437;DHT22;27178;49.460;10.850;2023-12-29T11:52:58;13.20;84.30
41437;DHT22;27178;49.460;10.850;2023-12-29T11:55:31;13.20;84.20
41437;DHT22;27178;49.460;10.850;2023-12-29T11:58:02;13.20;84.10
41437;DHT22;27178;49.460;10.850;2023-12-29T12:00:42;13.20;84.30
41437;DHT22;27178;49.460;10.850;2023-12-29T12:03:19;13.20;84.10
41437;DHT22;27178;49.460;10.850;2023-12-29T12:05:52;13.20;84.10
41437;DHT22;27178;49.460;10.850;2023-12-29T12:08:28;13.20;83.90
41437;DHT22;27178;49.460;10.850;2023-12-29T12:11:40;13.20;83.80
41437;DHT22;27178;49.460;10.850;2023-12-29T12:13:47;13.20;83.60
41437;DHT22;27178;49.460;10.850;2023-12-29T12:16:47;13.20;83.50
41437;DHT22;27178;49.460;10.850;2023-12-29T12:19:16;13.30;83.30
41437;DHT22;27178;49.460;10.850;2023-12-29T12:21:46;13.30;83.00
41437;DHT22;27178;49.460;10.850;2023-12-29T12:24:18;13.30;82.80
41437;DHT22;27178;49.460;10.850;2023-12-29T12:26:47;13.30;82.40
41437;DHT22;27178;49.460;10.850;2023-12-29T12:29:18;13.30;82.30
41437;DHT22;27178;49.460;10.850;2023-12-29T12:31:53;13.30;82.20
41437;DHT22;27178;49.460;10.850;2023-12-29T12:34:22;13.30;82.10
41437;DHT22;27178;49.460;10.850;2023-12-29T12:36:52;13.30;82.10
41437;DHT22;27178;49.460;10.850;2023-12-29T12:39:23;13.30;82.10
41437;DHT22;27178;49.460;10.850;2023-12-29T12:41:52;13.30;81.90
41437;DHT22;27178;49.460;10.850;2023-12-29T12:44:21;13.30;81.50
41437;DHT22;27178;49.460;10.850;2023-12-29T12:46:58;13.40;81.70
41437;DHT22;27178;49.460;10.850;2023-12-29T12:49:29;13.40;81.50
41437;DHT22;27178;49.460;10.850;2023-12-29T12:51:57;13.40;81.30
41437;DHT22;27178;49.460;10.850;2023-12-29T12:54:26;13.50;81.30
41437;DHT22;27178;49.460;10.850;2023-12-29T12:56:55;13.50;81.00
41437;DHT22;27178;49.460;10.850;2023-12-29T12:59:25;13.50;81.00
41437;DHT22;27178;49.460;10.850;2023-12-29T13:01:55;13.50;81.20
41437;DHT22;27178;49.460;10.850;2023-12-29T13:04:24;13.40;81.00
41437;DHT22;27178;49.460;10.850;2023-12-29T13:06:53;13.50;80.90
41437;DHT22;27178;49.460;10.850;2023-12-29T13:09:22;13.50;81.10
41437;DHT22;27178;49.460;10.850;2023-12-29T13:11:50;13.50;81.10
41437;DHT22;27178;49.460;10.850;2023-12-29T13:14:22;13.60;81.20
41437;DHT22;27178;49.460;10.850;2023-12-29T13:16:54;13.60;80.90
41437;DHT22;27178;49.460;10.850;2023-12-29T13:19:24;13.70;81.30
41437;DHT22;27178;49.460;10.850;2023-12-29T13:21:54;13.70;81.10
41437;DHT22;27178;49.460;10.850;2023-12-29T13:24:24;13.80;81.20
41437;DHT22;27178;49.460;10.850;2023-12-29T13:26:57;13.90;81.10
41437;DHT22;27178;49.460;10.850;2023-12-29T13:29:26;14.00;80.30
41437;DHT22;27178;49.460;10.850;2023-12-29T13:32:00;14.10;79.80
41437;DHT22;27178;49.460;10.850;2023-12-29T13:34:37;14.20;78.90
41437;DHT22;27178;49.460;10.850;2023-12-29T13:37:16;14.30;77.80
41437;DHT22;27178;49.460;10.850;2023-12-29T13:39:53;14.40;78.50
41437;DHT22;27178;49.460;10.850;2023-12-29T13:42:24;14.50;78.40
41437;DHT22;27178;49.460;10.850;2023-12-29T13:44:56;14.50;78.00
41437;DHT22;27178;49.460;10.850;2023-12-29T13:47:28;14.50;78.00
41437;DHT22;27178;49.460;10.850;2023-12-29T13:49:56;14.60;77.80
41437;DHT22;27178;49.460;10.850;2023-12-29T13:52:24;14.50;77.20
41437;DHT22;27178;49.460;10.850;2023-12-29T13:54:53;14.50;77.20
41437;DHT22;27178;49.460;10.850;2023-12-29T13:57:29;14.50;76.90
41437;DHT22;27178;49.460;10.850;2023-12-29T14:00:14;14.50;76.90
41437;DHT22;27178;49.460;10.850;2023-12-29T14:02:48;14.50;76.50
41437;DHT22;27178;49.460;10.850;2023-12-29T14:05:20;14.40;76.80
41437;DHT22;27178;49.460;10.850;2023-12-29T14:07:54;14.40;76.90
41437;DHT22;27178;49.460;10.850;2023-12-29T14:10:23;14.40;76.90
41437;DHT22;27178;49.460;10.850;2023-12-29T14:12:51;14.30;76.90
41437;DHT22;27178;49.460;10.850;2023-12-29T14:15:19;14.20;77.00
41437;DHT22;27178;49.460;10.850;2023-12-29T14:17:49;14.20;77.00
41437;DHT22;27178;49.460;10.850;2023-12-29T14:20:33;14.20;76.90
41437;DHT22;27178;49.460;10.850;2023-12-29T14:23:02;14.10;77.10
41437;DHT22;27178;49.460;10.850;2023-12-29T14:25:32;14.10;77.50
41437;DHT22;27178;49.460;10.850;2023-12-29T14:28:03;14.10;77.30
41437;DHT22;27178;49.460;10.850;2023-12-29T14:30:31;14.10;77.80
41437;DHT22;27178;49.460;10.850;2023-12-29T14:33:02;14.00;77.90
41437;DHT22;27178;49.460;10.850;2023-12-29T14:35:31;14.00;78.20
41437;DHT22;27178;49.460;10.850;2023-12-29T14:37:59;14.00;78.00
41437;DHT22;27178;49.460;10.850;2023-12-29T14:40:28;14.00;77.80
41437;DHT22;27178;49.460;10.850;2023-12-29T14:42:56;13.90;78.20
41437;DHT22;27178;49.460;10.850;2023-12-29T14:45:24;13.90;78.10
41437;DHT22;27178;49.460;10.850;2023-12-29T14:47:53;13.90;77.60
41437;DHT22;27178;49.460;10.850;2023-12-29T14:50:22;13.90;77.80
41437;DHT22;27178;49.460;10.850;2023-12-29T14:52:50;13.80;77.60
41437;DHT22;27178;49.460;10.850;2023-12-29T14:55:19;13.80;77.60
41437;DHT22;27178;49.460;10.850;2023-12-29T14:57:48;13.80;77.90
41437;DHT22;27178;49.460;10.850;2023-12-29T15:00:17;13.80;78.90
41437;DHT22;27178;49.460;10.850;2023-12-29T15:02:45;13.80;78.00
41437;DHT22;27178;49.460;10.850;2023-12-29T15:05:14;13.70;78.00
41437;DHT22;27178;49.460;10.850;2023-12-29T15:07:43;13.70;77.70
41437;DHT22;27178;49.460;10.850;2023-12-29T15:10:11;13.70;77.70
41437;DHT22;27178;49.460;10.850;2023-12-29T15:12:40;13.70;77.70
41437;DHT22;27178;49.460;10.850;2023-12-29T15:15:10;13.70;78.00
41437;DHT22;27178;49.460;10.850;2023-12-29T15:17:39;13.60;77.80
41437;DHT22;27178;49.460;10.850;2023-12-29T15:20:08;13.60;77.60
41437;DHT22;27178;49.460;10.850;2023-12-29T15:22:37;13.60;77.70
41437;DHT22;27178;49.460;10.850;2023-12-29T15:25:07;13.60;77.80
41437;DHT22;27178;49.460;10.850;2023-12-29T15:27:35;13.60;77.80
41437;DHT22;27178;49.460;10.850;2023-12-29T15:30:08;13.50;78.00
41437;DHT22;27178;49.460;10.850;2023-12-29T15:32:38;13.50;78.40
41437;DHT22;27178;49.460;10.850;2023-12-29T15:35:07;13.50;78.40